• Join FlightAware (Why Join?)
  • Login
  • US Flag 
07:03PM EST


 

Airport Tracker/Info


-or-


 

Live Flight TrackerFlight Track Log ✈ ASQ5861 ✈ 29-Apr-2013 ✈ KORD - KABE

Flight Track Log - Related Links

Times and Time Zones

All times are in EDT time to prevent confusion due to time zone crossing. See the ASQ5861 flight status page for this flight to view local times or setup timezone preferences in your user account.

Time Position Orientation Groundspeed Altitude Reporting Facility
EDT Latitude Longitude Course Direction KTS MPH feet Rate Location/Type
10:08PM 41.9333 -87.8667 83° East 198 228 3,900  Level Chicago TRACON
10:10PM 41.9494 -87.6928 83° East 274 315 5,100 600 Climbing Chicago Center
10:11PM 41.9475 -87.5853 91° East 286 329 5,800 1,560 Climbing Chicago Center
10:12PM 41.9469 -87.4792 90° East 286 329 8,300 2,280 Climbing Chicago Center
10:13PM 41.9467 -87.3631 90° East 309 356 10,500 1,380 Climbing Chicago Center
10:14PM 41.9453 -87.2317 91° East 357 411 11,200 1,620 Climbing Chicago Center
10:15PM 41.9439 -87.0675 91° East 367 422 13,800 2,280 Climbing Chicago Center
10:16PM 41.9467 -86.9417 88° East 344 396 15,900 1,920 Climbing Chicago Center
10:17PM 41.9486 -86.8103 89° East 353 406 17,800 1,260 Climbing Chicago Center
10:18PM 41.9500 -86.6783 89° East 375 432 18,500 660 Climbing Chicago Center
10:19PM 41.9522 -86.5228 89° East 411 473 19,200 1,260 Climbing Chicago Center
10:20PM 41.9533 -86.3633 89° East 425 489 21,100 1,560 Climbing Chicago Center
10:21PM 41.9536 -86.2075 90° East 420 483 22,400 1,080 Climbing Chicago Center
10:22PM 41.9397 -86.0456 97° East 434 499 23,400 1,020 Climbing Chicago Center
10:23PM 41.9208 -85.8467 97° East 446 513 24,600 1,080 Climbing Chicago Center
10:24PM 41.9050 -85.6769 97° East 456 525 25,600 960 Climbing Chicago Center
10:25PM 41.8881 -85.5042 97° East 462 532 26,600 960 Climbing Chicago Center
10:26PM 41.8725 -85.3314 97° East 461 531 27,600 960 Climbing Chicago Center
10:27PM 41.8536 -85.1606 98° East 458 527 28,600 900 Climbing Chicago Center
10:28PM 41.8428 -85.0183 96° East 450 518 29,400 900 Climbing Cleveland Center
10:29PM 41.8242 -84.8525 99° East 450 518 30,400 960 Climbing Cleveland Center
10:30PM 41.8075 -84.6786 97° East 450 518 31,400 1,020 Climbing Cleveland Center
10:31PM 41.7886 -84.5047 98° East 456 525 32,500 1,020 Climbing Cleveland Center
10:32PM 41.7797 -84.3314 94° East 461 531 33,500 900 Climbing Cleveland Center
10:33PM 41.7736 -84.1361 92° East 466 536 34,300 720 Climbing Cleveland Center
10:34PM 41.7725 -83.9606 90° East 466 536 35,000 300 Climbing Cleveland Center
10:35PM 41.7714 -83.7822 90° East 472 543 35,000  Level Cleveland Center
10:36PM 41.7678 -83.6094 92° East 472 543 35,000  Level Cleveland Center
10:37PM 41.7578 -83.4364 94° East 472 543 35,000  Level Cleveland Center
10:38PM 41.7411 -83.2631 97° East 472 543 35,000  Level Cleveland Center
10:39PM 41.7242 -83.0897 97° East 467 537 35,000  Level Cleveland Center
10:40PM 41.7047 -82.9139 98° East 467 537 35,000  Level Cleveland Center
10:41PM 41.6872 -82.7436 98° East 467 537 35,000  Level Cleveland Center
10:42PM 41.6694 -82.5733 98° East 467 537 35,000  Level Cleveland Center
10:43PM 41.6536 -82.4006 97° East 467 537 35,000  Level Cleveland Center
10:44PM 41.6372 -82.2472 98° East 467 537 35,000  Level Cleveland Center
10:45PM 41.6189 -82.0747 98° East 467 537 35,000  Level Cleveland Center
10:46PM 41.6000 -81.9019 98° East 467 537 35,000  Level Cleveland Center
10:47PM 41.5811 -81.7322 98° East 467 537 35,000  Level Cleveland Center
10:48PM 41.5600 -81.5433 98° East 467 537 35,000  Level Cleveland Center
10:49PM 41.5403 -81.3711 99° East 467 537 35,000  Level Cleveland Center
10:50PM 41.5206 -81.2044 99° East 467 537 35,000  Level Cleveland Center
10:51PM 41.5047 -81.0322 97° East 467 537 35,000  Level Cleveland Center
10:52PM 41.4886 -80.8603 97° East 467 537 35,000  Level Cleveland Center
10:53PM 41.4742 -80.6911 96° East 458 527 35,000  Level Cleveland Center
10:54PM 41.4597 -80.5417 97° East 458 527 35,000  Level Cleveland Center
10:55PM 41.4450 -80.3697 96° East 458 527 35,000  Level Cleveland Center
10:56PM 41.4300 -80.2008 97° East 464 534 35,000  Level Cleveland Center
10:57PM 41.4147 -80.0322 97° East 464 534 35,000  Level Cleveland Center
10:58PM 41.3947 -79.8469 98° East 464 534 35,000  Level Cleveland Center
10:59PM 41.3789 -79.6811 97° East 464 534 35,000  Level Cleveland Center
11:00PM 41.3631 -79.5292 98° East 464 534 35,000  Level Cleveland Center
11:01PM 41.3469 -79.3578 97° East 464 534 35,000  Level Cleveland Center
11:02PM 41.3261 -79.1758 99° East 464 534 35,000 -600 Level Cleveland Center
11:03PM 41.3092 -79.0103 98° East 464 534 33,900 -1,200 Descending Cleveland Center
11:04PM 41.2947 -78.8614 97° East 459 528 32,700 -1,380 Descending Cleveland Center
11:05PM 41.2772 -78.6906 98° East 459 528 31,200 -960 Descending Cleveland Center
11:07PM 41.2419 -78.3844 99° East 446 513 29,900 -960 Descending New York Center
11:08PM 41.2231 -78.2222 99° East 441 507 28,400 -1,500 Descending New York Center
11:09PM 41.2039 -78.0600 99° East 441 507 26,900 -1,560 Descending New York Center
11:10PM 41.1831 -77.8869 99° East 453 521 25,400 -1,440 Descending New York Center
11:11PM 41.1553 -77.7239 103° East 453 521 24,100 -1,500 Descending New York Center
11:12PM 41.1281 -77.5833 104° East 426 490 22,500 -1,740 Descending New York Center
11:13PM 41.0983 -77.4428 106° East 402 463 20,700 -1,800 Descending New York Center
11:14PM 41.0681 -77.3131 107° East 388 447 18,900 -1,740 Descending New York Center
11:15PM 41.0436 -77.1897 105° East 368 423 17,300 -4,920 Descending New York Center
11:16PM 41.0164 -77.0744 107° East 343 395 9,000 -4,080 Descending New York Center
11:17PM 40.9931 -76.9678 106° East 317 365 9,000 1,380 Level New York Center
11:18PM 40.9697 -76.8556 105° East 308 354 11,900 1,140 Climbing New York Center
11:19PM 40.9408 -76.7239 106° East 322 371 11,300 -720 Descending New York Center
11:20PM 40.9153 -76.6092 106° East 333 383 10,600 -600 Descending New York Center
11:21PM 40.8950 -76.5139 106° East 308 354 10,100 -480 Descending New York Center
11:22PM 40.8692 -76.4019 107° East 292 336 9,700 -420 Descending New York Center
11:23PM 40.8506 -76.3072 105° East 274 315 9,300 -360 Descending New York Center
11:24PM 40.8281 -76.2119 107° East 269 310 9,100 -180 Descending New York Center
11:25PM 40.8089 -76.1256 106° East 269 310 9,000 -480 Descending New York Center
11:26PM 40.7881 -76.0361 107° East 264 304 8,200 -960 Descending New York Center
11:27PM 40.7672 -75.9386 106° East 259 298 7,100 -1,200 Descending New York Center
11:28PM 40.7375 -75.8542 115° Southeast 252 290 5,900 -1,380 Descending New York Center
11:29PM 40.6875 -75.8067 144° Southeast 231 266 4,400 -1,500 Descending New York Center
11:30PM 40.6394 -75.7622 145° Southeast 236 272 3,000 -780 Descending New York Center
11:31PM 40.5833 -75.7117 146° Southeast 230 265 2,900  Descending New York Center
11:32PM 40.5353 -75.6592 140° Southeast 230 265 3,000  Climbing New York Center
11:33PM 40.5589 -75.5925 65° Northeast 177 204 3,000 -480 Level New York Center
11:34PM 40.5947 -75.5347 51° Northeast 177 204 2,100 -900 Descending New York Center
11:35PM 40.6194 -75.4900 54° Northeast 168 193 1,200 -480 Descending New York Center
11:36PM 40.6464 -75.4400 55° Northeast 168 193 1,200 2,940 Level New York Center
11:37PM 40.6733 -75.3869 56° Northeast 168 193 7,000 2,880 Climbing New York Center
11:38PM 40.7025 -75.3342 54° Northeast 168 193 7,000  Level New York Center